Time;durP1;ratioP1;P1;durP2;ratioP2;P2;SDS_P1;SDS_P2;PMS_P1;PMS_P2;Temp;Humidity;BMP_temperature;BMP_pressure;BME280_temperature;BME280_humidity;BME280_pressure;Samples;Min_cycle;Max_cycle;Signal;HPM_P1;HPM_P2
2023/03/20 00:00:23;;;;;;;0.85;0.68;;;20.10;76.50;;;;;;10484358;28;20406;-26
2023/03/20 00:05:28;;;;;;;2.75;0.75;;;20.10;76.70;;;;;;10487241;28;20118;-25
2023/03/20 00:10:35;;;;;;;1.95;0.88;;;20.00;76.70;;;;;;10482643;28;20064;-25
2023/03/20 00:15:39;;;;;;;3.88;0.70;;;20.00;76.70;;;;;;10483194;28;20052;-25
2023/03/20 00:20:42;;;;;;;1.92;0.70;;;20.00;76.80;;;;;;10483748;28;20421;-27
2023/03/20 00:25:46;;;;;;;1.73;0.95;;;20.00;75.90;;;;;;10487089;28;20052;-26
2023/03/20 00:30:48;;;;;;;2.15;0.70;;;20.00;76.20;;;;;;10486146;28;20052;-26
2023/03/20 00:35:51;;;;;;;3.20;0.80;;;20.00;76.50;;;;;;10481920;28;20158;-26
2023/03/20 00:40:53;;;;;;;2.28;0.80;;;20.00;76.00;;;;;;10487507;28;20045;-26
2023/03/20 00:45:55;;;;;;;0.90;0.60;;;19.90;76.70;;;;;;10487692;28;20555;-26
2023/03/20 00:50:58;;;;;;;2.17;0.77;;;19.90;75.80;;;;;;10489686;28;20036;-26
2023/03/20 00:56:00;;;;;;;2.35;0.70;;;19.90;75.50;;;;;;10492294;28;20131;-26
2023/03/20 01:01:02;;;;;;;1.75;0.75;;;20.00;75.60;;;;;;10493475;28;20080;-26
2023/03/20 01:06:06;;;;;;;1.52;0.60;;;19.90;75.80;;;;;;10487925;28;20056;-25
2023/03/20 01:11:12;;;;;;;2.30;1.20;;;19.70;76.60;;;;;;10490359;28;20051;-25
2023/03/20 01:16:21;;;;;;;4.32;0.93;;;19.50;79.00;;;;;;10488023;28;20581;-26
2023/03/20 01:21:25;;;;;;;1.17;0.50;;;19.60;77.30;;;;;;10493830;28;20045;-26
2023/03/20 01:26:32;;;;;;;1.70;0.68;;;19.70;76.00;;;;;;10490161;28;20072;-25
2023/03/20 01:31:33;;;;;;;5.18;1.15;;;19.60;77.00;;;;;;10491197;28;20133;-26
2023/03/20 01:36:38;;;;;;;2.38;0.95;;;18.40;86.50;;;;;;10472551;28;20073;-26
2023/03/20 01:41:39;;;;;;;2.92;2.20;;;19.00;81.10;;;;;;10475321;28;20608;-27
2023/03/20 01:46:42;;;;;;;1.95;1.55;;;18.30;84.70;;;;;;10487204;28;20155;-27
2023/03/20 01:51:45;;;;;;;;;;;18.20;85.70;;;;;;10499829;28;20082;-26
2023/03/20 01:56:51;;;;;;;3.28;1.63;;;17.70;90.30;;;;;;10498007;28;19947;-26
2023/03/20 02:01:53;;;;;;;4.07;1.02;;;18.80;80.70;;;;;;10492131;28;20379;-25
2023/03/20 02:06:57;;;;;;;2.13;0.82;;;19.00;79.80;;;;;;10489697;28;20056;-26
2023/03/20 02:11:59;;;;;;;4.18;0.90;;;19.40;76.30;;;;;;10494840;28;20125;-25
2023/03/20 02:17:10;;;;;;;2.47;1.23;;;19.60;75.20;;;;;;10495855;28;20076;-27
2023/03/20 02:22:48;;;;;;;1.60;0.80;;;19.50;75.00;;;;;;10504049;28;20062;-25
2023/03/20 02:28:12;;;;;;;1.85;0.85;;;19.50;75.10;;;;;;10478036;28;20141;-26
2023/03/20 02:34:00;;;;;;;2.38;1.10;;;19.50;74.60;;;;;;10486825;28;20051;-26
2023/03/20 02:39:42;;;;;;;2.95;1.40;;;19.20;76.80;;;;;;10495941;28;20051;-26
2023/03/20 02:44:50;;;;;;;1.50;1.10;;;18.40;78.30;;;;;;10474449;28;20057;-26
2023/03/20 02:50:02;;;;;;;11.93;5.55;;;18.20;85.80;;;;;;10489977;28;20080;-26
2023/03/20 02:55:10;;;;;;;;;;;18.40;79.30;;;;;;10503622;28;20044;-27
2023/03/20 03:00:17;;;;;;;2.13;1.10;;;18.40;82.20;;;;;;10497481;28;19928;-25
2023/03/20 03:05:24;;;;;;;1.80;1.02;;;19.00;78.10;;;;;;10495623;28;20048;-25
2023/03/20 03:10:31;;;;;;;8.20;3.30;;;19.20;74.40;;;;;;10477928;28;20076;-26
2023/03/20 03:15:37;;;;;;;2.28;0.95;;;19.00;76.00;;;;;;10492637;28;20044;-26
2023/03/20 03:20:40;;;;;;;2.35;1.10;;;19.20;75.00;;;;;;10494668;28;20059;-25
2023/03/20 03:25:43;;;;;;;3.15;1.00;;;19.30;74.10;;;;;;10509415;28;20624;-26
2023/03/20 03:30:46;;;;;;;1.90;0.98;;;19.10;75.70;;;;;;10480031;28;20136;-26
2023/03/20 03:35:49;;;;;;;3.90;1.65;;;19.20;74.80;;;;;;10489572;28;20135;-25
2023/03/20 03:41:00;;;;;;;4.88;1.67;;;18.70;70.50;;;;;;10467429;28;20135;-26
2023/03/20 03:46:08;;;;;;;3.55;1.65;;;17.80;84.60;;;;;;10488116;28;20048;-27
2023/03/20 03:51:13;;;;;;;5.47;2.65;;;18.30;81.30;;;;;;10465662;28;20072;-27
2023/03/20 03:56:21;;;;;;;2.80;0.95;;;18.50;77.20;;;;;;10474943;28;20052;-25
2023/03/20 04:01:26;;;;;;;2.88;1.40;;;18.90;76.20;;;;;;10485098;28;20478;-26
2023/03/20 04:06:28;;;;;;;2.70;1.23;;;18.50;78.90;;;;;;10463381;28;20478;-25
2023/03/20 04:11:31;;;;;;;;;;;18.00;82.70;;;;;;10492545;28;20127;-25
2023/03/20 04:16:33;;;;;;;7.07;2.67;;;17.50;83.20;;;;;;10488732;28;19974;-24
2023/03/20 04:21:35;;;;;;;4.28;2.55;;;17.20;87.50;;;;;;10491548;28;20074;-26
2023/03/20 04:26:39;;;;;;;4.13;1.50;;;17.40;84.40;;;;;;10509346;28;20110;-36
2023/03/20 04:31:41;;;;;;;2.40;1.10;;;17.30;87.10;;;;;;10485467;28;20075;-26
2023/03/20 04:36:44;;;;;;;4.47;1.48;;;18.50;78.00;;;;;;10505650;28;20049;-25
2023/03/20 04:41:47;;;;;;;1.50;1.00;;;18.50;77.70;;;;;;10474858;28;20159;-26
2023/03/20 04:46:49;;;;;;;2.97;1.00;;;18.80;74.80;;;;;;10495886;28;20048;-26
2023/03/20 04:51:51;;;;;;;3.30;1.55;;;18.60;73.90;;;;;;10497509;28;20086;-26
2023/03/20 04:56:55;;;;;;;3.38;1.38;;;17.90;82.20;;;;;;10488891;28;20145;-26
2023/03/20 05:01:56;;;;;;;6.43;2.83;;;18.00;80.30;;;;;;10500334;28;20057;-26
2023/03/20 05:06:58;;;;;;;5.22;1.33;;;17.30;71.10;;;;;;10504144;28;20048;-26
2023/03/20 05:12:02;;;;;;;2.78;1.42;;;17.40;85.80;;;;;;10491310;28;20118;-26
2023/03/20 05:17:04;;;;;;;4.55;1.30;;;17.00;84.60;;;;;;10494873;28;20048;-26
2023/03/20 05:22:06;;;;;;;6.45;2.17;;;17.20;83.40;;;;;;10484335;28;20094;-25
2023/03/20 05:27:10;;;;;;;9.97;2.67;;;17.30;70.00;;;;;;10481812;28;20088;-25
2023/03/20 05:32:12;;;;;;;4.50;1.40;;;17.50;81.20;;;;;;10493255;28;20486;-26
2023/03/20 05:37:14;;;;;;;5.57;2.05;;;17.20;86.70;;;;;;10485199;28;20535;-26
2023/03/20 05:42:18;;;;;;;5.40;1.98;;;18.10;78.70;;;;;;10495329;28;20486;-24
2023/03/20 05:47:20;;;;;;;4.55;1.38;;;18.50;76.10;;;;;;10493245;28;20434;-23
2023/03/20 05:52:22;;;;;;;6.35;2.00;;;18.20;77.70;;;;;;10488293;28;20141;-25
2023/03/20 05:57:26;;;;;;;;;;;18.00;72.90;;;;;;10501848;28;20049;-25
2023/03/20 06:02:27;;;;;;;10.05;2.55;;;17.90;81.30;;;;;;10504578;28;20346;-27
2023/03/20 06:07:30;;;;;;;1.98;1.23;;;18.10;78.20;;;;;;10505672;28;20091;-25
2023/03/20 06:12:33;;;;;;;5.07;1.52;;;18.50;74.40;;;;;;10480375;28;20113;-25
2023/03/20 06:17:35;;;;;;;11.73;2.63;;;17.50;84.00;;;;;;10498839;28;20052;-33
2023/03/20 06:22:36;;;;;;;3.70;1.10;;;16.90;79.90;;;;;;10479516;28;20488;-26
2023/03/20 06:27:40;;;;;;;4.37;1.70;;;17.00;90.60;;;;;;10489607;28;20481;-27
2023/03/20 06:32:43;;;;;;;13.02;3.25;;;16.70;88.10;;;;;;10481700;28;20512;-24
2023/03/20 06:37:45;;;;;;;8.13;1.42;;;15.70;94.20;;;;;;10473507;28;20915;-25
2023/03/20 06:42:48;;;;;;;19.52;2.90;;;17.70;85.30;;;;;;10483083;28;20106;-26
2023/03/20 06:47:50;;;;;;;4.47;1.45;;;14.50;95.40;;;;;;10503256;28;20044;-27
2023/03/20 06:52:52;;;;;;;4.55;1.42;;;17.30;89.40;;;;;;10482761;28;20521;-25
2023/03/20 06:57:55;;;;;;;5.30;1.40;;;17.10;90.90;;;;;;10479661;28;20454;-25
2023/03/20 07:15:31;;;;;;;3.92;1.75;;;16.40;73.70;;;;;;10509196;27;20122;-24
2023/03/20 07:20:34;;;;;;;6.60;2.67;;;16.50;93.50;;;;;;10519439;28;20130;-24
2023/03/20 07:25:36;;;;;;;7.72;2.85;;;16.40;92.10;;;;;;10526921;28;20141;-23
2023/03/20 07:30:40;;;;;;;12.15;2.70;;;15.10;92.70;;;;;;10509829;28;20133;-23
2023/03/20 07:35:41;;;;;;;5.43;2.13;;;15.50;92.40;;;;;;10511227;28;20048;-25
2023/03/20 07:40:43;;;;;;;11.70;3.77;;;15.00;98.80;;;;;;10496077;28;20127;-26
2023/03/20 07:45:47;;;;;;;8.20;2.40;;;13.60;94.70;;;;;;10504946;28;20493;-28
2023/03/20 07:50:48;;;;;;;16.63;2.72;;;14.50;98.50;;;;;;10518538;28;20471;-27
2023/03/20 07:55:50;;;;;;;7.88;2.95;;;14.40;99.90;;;;;;10521836;28;20158;-25
2023/03/20 08:00:53;;;;;;;8.05;2.70;;;14.90;96.50;;;;;;10516952;28;20075;-26
2023/03/20 08:05:56;;;;;;;15.60;4.57;;;16.10;81.70;;;;;;10525136;28;20056;-26
2023/03/20 08:10:57;;;;;;;7.38;1.65;;;15.40;81.50;;;;;;10518846;28;20091;-24
2023/03/20 08:16:01;;;;;;;14.20;3.10;;;16.80;90.60;;;;;;10504601;28;20044;-27
2023/03/20 08:21:03;;;;;;;36.80;3.58;;;16.70;78.80;;;;;;10505877;28;20131;-24
2023/03/20 08:26:05;;;;;;;28.80;5.47;;;15.00;99.50;;;;;;10482934;28;20507;-24
2023/03/20 08:31:09;;;;;;;38.75;5.95;;;15.30;95.00;;;;;;10484241;28;20053;-26
2023/03/20 08:36:13;;;;;;;73.38;9.52;;;16.40;90.60;;;;;;10492032;28;20575;-25
2023/03/20 08:41:16;;;;;;;46.13;7.07;;;17.90;82.70;;;;;;10501820;28;20045;-26
2023/03/20 08:46:19;;;;;;;46.40;6.57;;;16.60;87.00;;;;;;10484313;28;20128;-27
2023/03/20 08:51:21;;;;;;;56.35;9.52;;;16.30;81.50;;;;;;10496481;28;20043;-25
2023/03/20 08:56:23;;;;;;;106.27;12.60;;;16.60;87.70;;;;;;10484214;28;20433;-25
2023/03/20 09:01:26;;;;;;;44.43;7.83;;;14.40;99.90;;;;;;10500859;28;20075;-26
2023/03/20 09:06:28;;;;;;;46.03;8.32;;;13.70;99.90;;;;;;10487761;28;20459;-26
2023/03/20 09:11:31;;;;;;;52.00;7.93;;;15.10;99.00;;;;;;10488739;28;20053;-25
2023/03/20 09:16:34;;;;;;;56.50;7.05;;;16.60;89.90;;;;;;10490599;28;20562;-26
2023/03/20 09:21:36;;;;;;;38.05;7.82;;;15.20;96.10;;;;;;10492894;28;20378;-25
2023/03/20 09:26:38;;;;;;;43.90;6.73;;;15.40;93.10;;;;;;10492962;28;20080;-25
2023/03/20 09:31:41;;;;;;;33.13;6.17;;;16.70;91.50;;;;;;10491083;28;20048;-25
2023/03/20 09:36:43;;;;;;;40.60;6.57;;;16.00;92.30;;;;;;10485613;28;20136;-25
2023/03/20 09:41:48;;;;;;;45.27;8.77;;;15.10;98.50;;;;;;10497245;28;20048;-26
2023/03/20 09:47:07;;;;;;;34.22;6.55;;;14.60;96.80;;;;;;10500227;28;20063;-28
2023/03/20 09:52:19;;;;;;;39.28;7.78;;;14.30;99.90;;;;;;10499823;28;20083;-25
2023/03/20 09:57:24;;;;;;;22.83;5.65;;;15.60;96.70;;;;;;10490390;28;20041;-24
2023/03/20 10:02:38;;;;;;;44.50;7.85;;;14.80;96.60;;;;;;10486104;28;20048;-26
2023/03/20 10:07:39;;;;;;;63.13;9.15;;;14.40;99.90;;;;;;10486339;28;20067;-24
2023/03/20 10:12:55;;;;;;;43.23;10.00;;;14.30;99.90;;;;;;10478018;28;20415;-25
2023/03/20 10:18:08;;;;;;;41.13;7.35;;;15.20;95.90;;;;;;10496732;28;20146;-25
2023/03/20 10:23:20;;;;;;;30.90;7.80;;;14.00;99.40;;;;;;10483237;28;20075;-25
2023/03/20 10:28:26;;;;;;;30.80;6.88;;;13.80;99.90;;;;;;10486342;28;20508;-25
2023/03/20 10:33:42;;;;;;;52.35;9.48;;;15.00;98.10;;;;;;10487596;28;20048;-25
2023/03/20 10:38:50;;;;;;;31.17;6.57;;;15.20;98.60;;;;;;10489270;28;20178;-28
2023/03/20 10:43:53;;;;;;;26.25;6.72;;;15.60;93.90;;;;;;10483463;28;20068;-25
2023/03/20 10:49:01;;;;;;;22.38;6.18;;;14.30;99.00;;;;;;10485920;28;20095;-25
2023/03/20 10:54:06;;;;;;;21.33;6.68;;;12.90;99.90;;;;;;10480467;28;20044;-25
2023/03/20 10:59:17;;;;;;;44.55;7.60;;;12.50;99.90;;;;;;10478754;28;20081;-24
2023/03/20 11:04:20;;;;;;;39.30;8.02;;;15.00;98.70;;;;;;10478207;28;20079;-22
2023/03/20 11:09:25;;;;;;;26.77;7.57;;;14.50;99.90;;;;;;10472155;28;20045;-24
2023/03/20 11:14:34;;;;;;;20.35;7.53;;;13.80;99.90;;;;;;10482425;28;20052;-27
2023/03/20 11:19:39;;;;;;;17.38;5.80;;;13.20;99.90;;;;;;10483286;28;20163;-25
2023/03/20 11:24:42;;;;;;;21.75;5.88;;;13.30;99.90;;;;;;10495632;28;20133;-26
2023/03/20 11:29:48;;;;;;;19.40;5.60;;;12.80;99.90;;;;;;10483581;28;20469;-25
2023/03/20 11:34:52;;;;;;;26.80;6.53;;;12.50;99.90;;;;;;10488049;28;20048;-23
2023/03/20 11:39:59;;;;;;;14.25;7.38;;;12.60;99.90;;;;;;10491170;28;20055;-26
2023/03/20 11:45:03;;;;;;;13.85;6.82;;;11.90;99.90;;;;;;10484212;28;20053;-25
2023/03/20 11:50:24;;;;;;;14.82;7.03;;;11.90;99.90;;;;;;10473599;28;20487;-25
2023/03/20 11:55:29;;;;;;;13.18;6.57;;;12.10;99.90;;;;;;10490089;28;20061;-26
2023/03/20 12:00:38;;;;;;;14.05;5.40;;;11.70;99.90;;;;;;10480890;28;20395;-26
2023/03/20 12:05:41;;;;;;;24.30;5.78;;;13.00;99.90;;;;;;10493631;28;20050;-24
2023/03/20 12:10:50;;;;;;;20.30;6.35;;;13.30;99.90;;;;;;10480043;28;20052;-24
2023/03/20 12:15:59;;;;;;;14.02;5.32;;;11.90;99.90;;;;;;10485113;28;20044;-26
2023/03/20 12:21:09;;;;;;;15.73;5.60;;;12.60;99.90;;;;;;10646071;22;20655;-26
2023/03/20 12:26:13;;;;;;;11.57;5.43;;;13.30;99.90;;;;;;10474540;28;20148;-26
2023/03/20 12:31:23;;;;;;;18.23;5.15;;;11.90;99.90;;;;;;10462499;28;20067;-26
2023/03/20 12:36:32;;;;;;;13.73;5.88;;;11.30;99.90;;;;;;10471943;28;20573;-27
2023/03/20 12:41:41;;;;;;;21.30;4.85;;;11.30;99.90;;;;;;10474429;28;20159;-25
2023/03/20 12:46:47;;;;;;;20.00;4.82;;;13.20;99.90;;;;;;10475093;28;20091;-25
2023/03/20 12:52:00;;;;;;;19.55;4.40;;;12.20;99.90;;;;;;10492772;28;20114;-25
2023/03/20 12:57:11;;;;;;;14.05;3.53;;;13.30;99.90;;;;;;10469488;28;20072;-26
2023/03/20 13:02:24;;;;;;;16.33;4.28;;;12.90;99.90;;;;;;10481632;28;20480;-25
2023/03/20 13:07:41;;;;;;;13.65;3.75;;;13.50;99.90;;;;;;10493842;28;20040;-26
2023/03/20 13:12:52;;;;;;;15.10;4.30;;;12.40;99.90;;;;;;10497319;28;20056;-27
2023/03/20 13:18:01;;;;;;;11.13;4.18;;;11.60;99.90;;;;;;10490690;28;20121;-27
2023/03/20 13:23:16;;;;;;;13.63;5.07;;;12.10;99.90;;;;;;10484379;28;20424;-26
2023/03/20 13:28:24;;;;;;;15.80;4.75;;;12.40;99.90;;;;;;10485360;28;20153;-26
2023/03/20 13:33:38;;;;;;;14.60;4.50;;;12.40;99.90;;;;;;10486385;28;20591;-27
2023/03/20 13:38:46;;;;;;;19.40;6.50;;;12.10;99.90;;;;;;10487628;28;20105;-26
2023/03/20 13:43:53;;;;;;;15.48;3.60;;;10.90;99.90;;;;;;10489811;28;20064;-26
2023/03/20 13:49:02;;;;;;;22.10;5.43;;;12.60;99.90;;;;;;10489358;28;20672;-25
2023/03/20 13:54:18;;;;;;;21.70;6.90;;;12.20;99.90;;;;;;10489321;28;20147;-26
2023/03/20 13:59:36;;;;;;;21.02;7.50;;;11.90;99.90;;;;;;10493477;28;20048;-25
2023/03/20 14:04:38;;;;;;;18.23;5.40;;;11.10;99.90;;;;;;10481229;28;20135;-25
2023/03/20 14:09:42;;;;;;;16.40;6.78;;;11.70;99.90;;;;;;10482671;28;20063;-26
2023/03/20 14:14:52;;;;;;;12.75;5.50;;;11.60;99.90;;;;;;10493990;28;20056;-26
2023/03/20 14:19:55;;;;;;;14.02;5.35;;;11.40;99.90;;;;;;10483636;28;20056;-26
2023/03/20 14:25:03;;;;;;;13.93;5.38;;;10.50;99.90;;;;;;10484474;28;20154;-26
2023/03/20 14:30:42;;;;;;;10.40;3.88;;;11.20;99.90;;;;;;10479761;28;20407;-25
2023/03/20 14:35:48;;;;;;;10.27;3.65;;;11.90;99.90;;;;;;10306031;28;20494;-26
2023/03/20 14:41:02;;;;;;;16.90;5.10;;;11.20;99.90;;;;;;10444872;28;20155;-26
2023/03/20 14:46:16;;;;;;;17.27;3.63;;;10.50;99.90;;;;;;10476744;28;20044;-26
2023/03/20 14:51:28;;;;;;;18.17;3.90;;;11.20;99.90;;;;;;10478744;28;20131;-24
2023/03/20 14:56:34;;;;;;;15.23;4.03;;;10.70;99.90;;;;;;10477328;28;20053;-25
2023/03/20 15:01:53;;;;;;;23.13;4.38;;;10.70;99.90;;;;;;10452725;28;20051;-25
2023/03/20 15:06:59;;;;;;;15.38;3.80;;;10.90;99.90;;;;;;10469469;28;20137;-26
2023/03/20 15:12:04;;;;;;;20.95;4.25;;;10.40;99.90;;;;;;10472565;28;20080;-25
2023/03/20 15:17:06;;;;;;;16.05;4.10;;;10.20;99.90;;;;;;10459930;28;20088;-26
2023/03/20 15:22:16;;;;;;;18.97;3.73;;;11.30;99.90;;;;;;10455722;28;20563;-26
2023/03/20 15:27:20;;;;;;;20.55;3.28;;;10.30;99.90;;;;;;10456148;28;20049;-26
2023/03/20 15:32:22;;;;;;;19.40;4.38;;;10.40;99.90;;;;;;10476412;28;20571;-26
2023/03/20 15:37:25;;;;;;;14.15;2.65;;;9.80;99.90;;;;;;10458804;28;20135;-25
2023/03/20 15:42:31;;;;;;;22.42;3.00;;;10.50;99.90;;;;;;10494619;28;20791;-27
2023/03/20 15:47:35;;;;;;;11.88;2.30;;;11.70;99.90;;;;;;10605314;22;20145;-27
2023/03/20 15:57:43;;;;;;;28.73;3.72;;;11.20;99.90;;;;;;10436719;28;20136;-26
2023/03/20 16:02:47;;;;;;;10.82;3.58;;;10.50;99.90;;;;;;10436800;28;20471;-28
2023/03/20 16:07:49;;;;;;;17.90;3.67;;;11.30;99.90;;;;;;10443558;28;20084;-26
2023/03/20 16:12:54;;;;;;;15.68;2.25;;;11.10;99.90;;;;;;10443816;28;20052;-26
2023/03/20 16:17:59;;;;;;;6.65;2.00;;;12.20;99.90;;;;;;10447414;28;20136;-26
2023/03/20 16:23:03;;;;;;;20.65;2.60;;;11.50;99.90;;;;;;10444054;28;20057;-26
2023/03/20 16:28:07;;;;;;;18.63;2.88;;;11.50;99.90;;;;;;10448113;28;20064;-26
2023/03/20 16:33:14;;;;;;;25.77;4.20;;;12.80;99.90;;;;;;10428415;28;20075;-25
2023/03/20 16:38:23;;;;;;;11.70;2.28;;;11.50;99.90;;;;;;10435129;28;20045;-26
2023/03/20 16:43:30;;;;;;;17.33;3.28;;;11.00;99.90;;;;;;10440013;28;20136;-26
2023/03/20 16:48:33;;;;;;;18.15;2.90;;;11.50;99.90;;;;;;10423645;28;20131;-28
2023/03/20 16:53:41;;;;;;;;;;;10.80;99.90;;;;;;10429755;28;20057;-26
2023/03/20 16:58:45;;;;;;;15.27;1.90;;;11.30;99.90;;;;;;10434470;28;20020;-26
2023/03/20 17:03:51;;;;;;;10.80;2.20;;;12.00;99.90;;;;;;10434217;28;20675;-27
2023/03/20 17:08:55;;;;;;;18.40;2.97;;;12.10;99.90;;;;;;10443512;28;20081;-26
2023/03/20 17:13:59;;;;;;;10.85;2.08;;;12.30;99.90;;;;;;10445925;28;20084;-26
2023/03/20 17:19:02;;;;;;;14.27;2.42;;;11.60;99.90;;;;;;10436239;28;20516;-25
2023/03/20 17:24:05;;;;;;;8.35;1.95;;;11.80;99.90;;;;;;10447944;28;20536;-25
2023/03/20 17:29:10;;;;;;;7.93;1.50;;;12.40;99.90;;;;;;10437936;28;20547;-27
2023/03/20 17:34:13;;;;;;;10.60;2.72;;;14.00;99.90;;;;;;10436926;28;20056;-27
2023/03/20 17:39:17;;;;;;;;;;;12.80;99.90;;;;;;10437750;28;20057;-26
2023/03/20 17:44:20;;;;;;;8.27;2.50;;;11.50;99.90;;;;;;10444517;28;19925;-26
2023/03/20 17:49:25;;;;;;;7.57;2.53;;;12.00;99.90;;;;;;10444470;28;20388;-25
2023/03/20 17:54:27;;;;;;;10.15;1.92;;;12.50;99.90;;;;;;10439522;28;20049;-27
2023/03/20 17:59:31;;;;;;;8.38;1.88;;;14.40;99.90;;;;;;10438081;28;20053;-27
2023/03/20 18:04:34;;;;;;;7.25;2.28;;;13.10;99.90;;;;;;10432589;28;20563;-26
2023/03/20 18:09:36;;;;;;;10.95;2.60;;;12.50;99.90;;;;;;10444947;28;20485;-27
2023/03/20 18:14:39;;;;;;;4.90;2.20;;;12.10;99.90;;;;;;10443800;28;20102;-27
2023/03/20 18:19:42;;;;;;;5.95;1.65;;;11.60;99.90;;;;;;10439537;28;20426;-26
2023/03/20 18:24:44;;;;;;;4.28;1.58;;;12.00;99.90;;;;;;10436246;28;20747;-27
2023/03/20 18:29:48;;;;;;;2.33;1.45;;;11.00;99.90;;;;;;10437399;28;20053;-26
2023/03/20 18:34:50;;;;;;;6.10;2.53;;;12.10;99.90;;;;;;10430913;28;20107;-27
2023/03/20 18:39:51;;;;;;;5.30;2.45;;;11.20;99.90;;;;;;10426918;28;20143;-26
2023/03/20 18:44:55;;;;;;;5.38;2.88;;;11.00;99.90;;;;;;10432699;28;20184;-25
2023/03/20 18:49:57;;;;;;;7.90;3.05;;;10.60;99.90;;;;;;10404376;28;20076;-26
2023/03/20 18:54:59;;;;;;;3.38;2.50;;;11.00;99.90;;;;;;10430207;28;20056;-25
2023/03/20 19:00:02;;;;;;;9.05;4.18;;;11.00;99.90;;;;;;10428942;28;20131;-27
2023/03/20 19:05:04;;;;;;;6.38;3.15;;;10.30;99.90;;;;;;10432448;28;20508;-25
2023/03/20 19:10:12;;;;;;;5.95;2.80;;;10.40;99.90;;;;;;10426083;28;20489;-26
2023/03/20 19:15:16;;;;;;;4.32;2.15;;;10.40;99.90;;;;;;10433371;28;20067;-26
2023/03/20 19:20:32;;;;;;;6.63;3.08;;;10.90;99.90;;;;;;10446369;28;20566;-26
2023/03/20 19:25:35;;;;;;;5.07;2.55;;;10.40;99.90;;;;;;10425072;28;20072;-27
2023/03/20 19:30:40;;;;;;;3.88;2.92;;;11.00;99.90;;;;;;10440290;28;20044;-27
2023/03/20 19:35:42;;;;;;;4.20;3.10;;;10.70;99.90;;;;;;10438524;28;20088;-25
2023/03/20 19:40:46;;;;;;;6.77;3.60;;;10.40;99.90;;;;;;10436247;28;20144;-26
2023/03/20 19:45:52;;;;;;;8.25;3.30;;;10.30;99.90;;;;;;10440297;28;20056;-26
2023/03/20 19:50:58;;;;;;;4.80;3.92;;;11.10;99.90;;;;;;10435268;28;20378;-26
2023/03/20 19:55:59;;;;;;;4.75;3.63;;;10.70;99.90;;;;;;10433086;28;20056;-25
2023/03/20 20:01:03;;;;;;;9.30;3.55;;;10.70;99.90;;;;;;10436933;28;20090;-26
2023/03/20 20:06:06;;;;;;;4.18;2.67;;;12.30;99.90;;;;;;10434035;28;20052;-25
2023/03/20 20:11:10;;;;;;;3.20;2.83;;;12.10;99.90;;;;;;10433117;28;20060;-26
2023/03/20 20:16:13;;;;;;;3.55;1.80;;;13.10;99.90;;;;;;10431805;28;20049;-25
2023/03/20 20:21:15;;;;;;;3.97;2.05;;;13.10;99.90;;;;;;10434738;28;20139;-26
2023/03/20 20:26:17;;;;;;;10.00;4.00;;;13.90;99.90;;;;;;10443706;28;20044;-26
2023/03/20 20:31:28;;;;;;;7.25;3.70;;;11.50;99.90;;;;;;10439286;28;20084;-26
2023/03/20 20:36:29;;;;;;;6.50;3.97;;;11.70;99.90;;;;;;10447057;28;20124;-26
2023/03/20 20:41:31;;;;;;;13.98;5.28;;;11.00;99.90;;;;;;10443134;28;20711;-25
2023/03/20 20:46:34;;;;;;;6.55;2.45;;;11.30;99.90;;;;;;10447679;28;20091;-26
2023/03/20 20:51:36;;;;;;;4.50;2.42;;;13.50;99.90;;;;;;10442268;28;20045;-25
2023/03/20 20:56:38;;;;;;;4.95;2.10;;;13.40;99.90;;;;;;10447948;28;20259;-26
2023/03/20 21:01:42;;;;;;;11.97;2.70;;;12.70;99.90;;;;;;10441293;28;20136;-26
2023/03/20 21:06:43;;;;;;;5.05;3.28;;;12.70;99.90;;;;;;10438814;28;20052;-26
2023/03/20 21:11:45;;;;;;;3.70;3.30;;;12.30;99.90;;;;;;10444825;28;20048;-26
2023/03/20 21:16:49;;;;;;;9.57;4.47;;;11.80;99.90;;;;;;10435336;28;20061;-26
2023/03/20 21:21:51;;;;;;;10.30;5.40;;;11.50;99.90;;;;;;10436815;28;20135;-25
2023/03/20 21:26:53;;;;;;;4.97;2.88;;;11.10;99.90;;;;;;10440162;28;20426;-27
2023/03/20 21:31:56;;;;;;;4.68;4.22;;;11.80;99.90;;;;;;10431529;28;20052;-27
2023/03/20 21:36:59;;;;;;;4.63;2.60;;;11.90;99.90;;;;;;10429890;28;20129;-27
2023/03/20 21:42:01;;;;;;;4.15;1.98;;;13.80;99.90;;;;;;10442892;28;20053;-26
2023/03/20 21:47:04;;;;;;;4.78;2.35;;;13.40;99.90;;;;;;10439960;28;20088;-27
2023/03/20 21:52:06;;;;;;;3.85;2.67;;;13.30;99.90;;;;;;10432302;28;20044;-26
2023/03/20 21:57:08;;;;;;;5.53;3.87;;;13.00;99.90;;;;;;10447694;28;20057;-26
2023/03/20 22:02:15;;;;;;;5.30;2.93;;;11.90;99.90;;;;;;10443837;28;20131;-26
2023/03/20 22:07:17;;;;;;;8.60;4.22;;;12.70;99.90;;;;;;10434173;28;20148;-26
2023/03/20 22:12:19;;;;;;;8.70;5.93;;;12.00;99.90;;;;;;10442764;28;20044;-26
2023/03/20 22:17:23;;;;;;;7.70;5.28;;;11.10;99.90;;;;;;10443340;28;20099;-27
2023/03/20 22:22:25;;;;;;;8.70;5.03;;;11.80;99.90;;;;;;10441090;28;20506;-26
2023/03/20 22:27:27;;;;;;;10.48;4.50;;;11.60;99.90;;;;;;10423636;28;20465;-25
2023/03/20 22:32:30;;;;;;;6.78;3.13;;;12.20;99.90;;;;;;10443972;28;20524;-26
2023/03/20 22:37:32;;;;;;;9.48;3.92;;;12.00;99.90;;;;;;10436343;28;20045;-26
2023/03/20 22:42:34;;;;;;;4.10;2.77;;;13.80;99.90;;;;;;10424751;28;20132;-25
2023/03/20 22:47:38;;;;;;;2.03;1.60;;;13.40;99.90;;;;;;10421049;28;20091;-27
2023/03/20 22:52:39;;;;;;;8.65;4.03;;;14.10;99.90;;;;;;10433519;28;20568;-25
2023/03/20 22:57:41;;;;;;;6.25;3.33;;;13.90;99.90;;;;;;10443960;28;20477;-26
2023/03/20 23:02:45;;;;;;;11.70;4.20;;;13.90;99.90;;;;;;10433872;28;20503;-26
2023/03/20 23:07:47;;;;;;;8.82;4.68;;;12.70;99.90;;;;;;10430938;28;20136;-26
2023/03/20 23:12:49;;;;;;;9.95;5.47;;;12.40;99.90;;;;;;10438935;28;20155;-26
2023/03/20 23:17:52;;;;;;;10.00;4.45;;;12.00;99.90;;;;;;10439100;28;20052;-27
2023/03/20 23:22:54;;;;;;;7.30;4.03;;;13.00;99.90;;;;;;10441588;28;20072;-26
2023/03/20 23:27:57;;;;;;;13.93;4.93;;;13.70;99.90;;;;;;10433520;28;20099;-27
2023/03/20 23:33:00;;;;;;;10.57;4.80;;;13.00;99.90;;;;;;10445367;28;20126;-27
2023/03/20 23:38:02;;;;;;;10.73;5.93;;;12.40;99.90;;;;;;10436248;28;20142;-26
2023/03/20 23:43:04;;;;;;;9.38;5.15;;;12.50;99.90;;;;;;10445623;28;20134;-26
2023/03/20 23:48:07;;;;;;;9.83;6.30;;;13.40;99.90;;;;;;10436531;28;20045;-26
2023/03/20 23:53:10;;;;;;;14.75;7.88;;;12.20;99.90;;;;;;10441074;28;20115;-25
2023/03/20 23:58:12;;;;;;;12.80;6.77;;;12.30;99.90;;;;;;10444206;28;20121;-26
